Time;durP1;ratioP1;P1;durP2;ratioP2;P2;SDS_P1;SDS_P2;PMS_P1;PMS_P2;Temp;Humidity;BMP_temperature;BMP_pressure;BME280_temperature;BME280_humidity;BME280_pressure;Samples;Min_cycle;Max_cycle;Signal;HPM_P1;HPM_P2
2023/04/18 00:01:01;;;;;;;18.20;10.80;;;;;;;;;;107229;1273;24350;-73
2023/04/18 00:03:36;;;;;;;21.10;11.70;;;;;;;;;;107095;1273;24247;-81
2023/04/18 00:06:55;;;;;;;23.60;12.70;;;;;;;;;;107172;1273;22526;-73
2023/04/18 00:09:24;;;;;;;19.80;11.00;;;;;;;;;;107228;1262;22513;-80
2023/04/18 00:12:19;;;;;;;23.00;12.70;;;;;;;;;;107225;1273;23106;-80
2023/04/18 00:18:35;;;;;;;20.60;12.80;;;;;;;;;;106389;1265;24204;-75
2023/04/18 00:21:21;;;;;;;21.80;12.20;;;;;;;;;;106403;1283;23913;-78
2023/04/18 00:23:51;;;;;;;24.50;14.30;;;;;;;;;;106286;1283;22538;-79
2023/04/18 00:26:50;;;;;;;23.40;14.20;;;;;;;;;;106344;1284;25258;-78
2023/04/18 00:29:39;;;;;;;20.80;12.60;;;;;;;;;;106364;1267;22544;-77
2023/04/18 00:32:27;;;;;;;19.90;11.10;;;;;;;;;;106391;1270;23408;-78
2023/04/18 00:35:24;;;;;;;;;;;;;;;;;;;;;
2023/04/18 00:38:04;;;;;;;19.50;11.30;;;;;;;;;;106367;1284;22544;-76
2023/04/18 00:40:51;;;;;;;22.30;13.20;;;;;;;;;;106392;1284;22553;-80
2023/04/18 00:44:23;;;;;;;22.90;13.60;;;;;;;;;;106370;1284;22543;-76
2023/04/18 00:47:04;;;;;;;;;;;;;;;;;;;;;
2023/04/18 00:50:30;;;;;;;25.10;12.60;;;;;;;;;;106397;1265;23171;-77
2023/04/18 00:52:55;;;;;;;23.20;13.70;;;;;;;;;;106352;1285;25401;-78
2023/04/18 00:56:13;;;;;;;;;;;;;;;;;;;;;
2023/04/18 00:58:43;;;;;;;23.40;14.60;;;;;;;;;;107079;1256;22476;-81
2023/04/18 01:01:50;;;;;;;19.50;10.90;;;;;;;;;;107270;1273;22516;-79
2023/04/18 01:04:37;;;;;;;22.40;12.80;;;;;;;;;;107113;1251;22562;-74
2023/04/18 01:07:27;;;;;;;24.70;13.50;;;;;;;;;;106955;1275;22529;-74
2023/04/18 01:10:34;;;;;;;23.50;12.80;;;;;;;;;;106952;1254;26481;-76
2023/04/18 01:13:21;;;;;;;22.30;11.90;;;;;;;;;;107004;1273;22524;-79
2023/04/18 01:16:23;;;;;;;;;;;;;;;;;;;;;
2023/04/18 01:19:24;;;;;;;19.40;11.80;;;;;;;;;;107226;1257;24218;-79
2023/04/18 01:22:09;;;;;;;26.10;15.00;;;;;;;;;;106963;1275;22528;-79
2023/04/18 01:25:42;;;;;;;26.00;14.30;;;;;;;;;;106913;1275;25275;-81
2023/04/18 01:28:13;;;;;;;23.70;13.90;;;;;;;;;;106448;1283;24200;-76
2023/04/18 01:31:29;;;;;;;23.20;13.40;;;;;;;;;;106462;1265;22541;-77
2023/04/18 01:34:36;;;;;;;25.00;13.90;;;;;;;;;;106440;1282;24378;-74
2023/04/18 01:37:33;;;;;;;23.70;14.00;;;;;;;;;;105916;1290;25360;-75
2023/04/18 01:40:35;;;;;;;21.00;12.80;;;;;;;;;;105889;1271;25730;-79
2023/04/18 01:47:33;;;;;;;33.00;14.70;;;;;;;;;;105893;1289;22549;-79
2023/04/18 01:50:19;;;;;;;26.70;14.90;;;;;;;;;;105786;1271;25291;-76
2023/04/18 01:53:05;;;;;;;28.80;15.60;;;;;;;;;;105791;1290;24408;-75
2023/04/18 01:55:57;;;;;;;23.10;13.80;;;;;;;;;;105667;1290;24264;-73
2023/04/18 01:58:52;;;;;;;27.90;16.30;;;;;;;;;;105843;1290;22065;-80
2023/04/18 02:01:42;;;;;;;25.00;14.30;;;;;;;;;;105944;1282;22539;-79
2023/04/18 02:04:50;;;;;;;27.90;16.50;;;;;;;;;;106176;1281;25427;-75
2023/04/18 02:07:24;;;;;;;25.80;14.40;;;;;;;;;;106443;1281;22560;-75
2023/04/18 02:10:11;;;;;;;25.40;15.50;;;;;;;;;;106479;1259;24221;-79
2023/04/18 02:13:14;;;;;;;27.90;15.40;;;;;;;;;;106409;1281;22526;-81
2023/04/18 02:16:14;;;;;;;;;;;;;;;;;;;;;
2023/04/18 02:19:21;;;;;;;23.40;13.90;;;;;;;;;;107128;1275;22520;-79
2023/04/18 02:22:28;;;;;;;24.40;14.20;;;;;;;;;;107162;1275;26500;-79
2023/04/18 02:25:25;;;;;;;;;;;;;;;;;;;;;
2023/04/18 02:28:21;;;;;;;26.20;15.30;;;;;;;;;;107137;1275;22490;-82
2023/04/18 02:31:13;;;;;;;25.90;15.10;;;;;;;;;;107205;1250;24187;-80
2023/04/18 02:34:46;;;;;;;24.00;13.80;;;;;;;;;;107078;1273;25325;-75
2023/04/18 02:37:28;;;;;;;26.30;14.10;;;;;;;;;;107096;1274;22516;-77
2023/04/18 02:40:45;;;;;;;24.10;14.10;;;;;;;;;;107087;1274;24257;-77
2023/04/18 02:43:53;;;;;;;25.90;14.90;;;;;;;;;;107072;1257;22511;-81
2023/04/18 02:47:14;;;;;;;24.70;13.70;;;;;;;;;;106986;1275;25262;-79
2023/04/18 02:50:41;;;;;;;24.30;13.40;;;;;;;;;;107132;1275;22523;-78
2023/04/18 02:53:53;;;;;;;25.70;14.20;;;;;;;;;;106726;1262;22526;-82
2023/04/18 02:56:23;;;;;;;25.10;13.30;;;;;;;;;;106576;1281;24186;-82
2023/04/18 02:59:59;;;;;;;24.10;12.90;;;;;;;;;;105976;1287;22504;-79
2023/04/18 03:03:49;;;;;;;25.20;14.30;;;;;;;;;;105944;1268;25407;-80
2023/04/18 03:06:20;;;;;;;22.10;13.40;;;;;;;;;;105941;1286;22530;-79
2023/04/18 03:16:08;;;;;;;;;;;;;;;;;;;;;
2023/04/18 03:19:04;;;;;;;24.30;13.80;;;;;;;;;;105897;1292;22541;-77
2023/04/18 03:22:37;;;;;;;25.90;14.20;;;;;;;;;;105742;1292;25468;-83
2023/04/18 03:25:10;;;;;;;20.60;12.00;;;;;;;;;;105801;1292;24388;-75
2023/04/18 03:28:08;;;;;;;22.30;12.90;;;;;;;;;;105737;1292;22553;-76
2023/04/18 03:30:55;;;;;;;21.70;12.30;;;;;;;;;;106023;1285;22533;-78
2023/04/18 03:33:45;;;;;;;24.30;15.20;;;;;;;;;;106375;1268;23890;-80
2023/04/18 03:36:44;;;;;;;;;;;;;;;;;;;;;
2023/04/18 03:39:57;;;;;;;21.10;11.30;;;;;;;;;;106628;1281;25792;-80
2023/04/18 03:45:40;;;;;;;26.00;15.20;;;;;;;;;;106402;1268;22546;-80
2023/04/18 03:48:37;;;;;;;;;;;;;;;;;;;;;
2023/04/18 03:51:28;;;;;;;24.30;14.10;;;;;;;;;;106459;1283;22531;-81
2023/04/18 03:54:27;;;;;;;24.10;13.90;;;;;;;;;;106544;1267;25352;-78
2023/04/18 03:57:59;;;;;;;24.60;13.10;;;;;;;;;;107128;1274;24243;-76
2023/04/18 04:00:42;;;;;;;;;;;;;;;;;;;;;
2023/04/18 04:07:38;;;;;;;20.90;12.80;;;;;;;;;;106422;1268;22574;-79
2023/04/18 04:10:27;;;;;;;24.60;14.00;;;;;;;;;;106466;1283;25635;-82
2023/04/18 04:13:24;;;;;;;23.70;13.60;;;;;;;;;;106436;1283;22833;-81
2023/04/18 04:15:59;;;;;;;22.40;13.60;;;;;;;;;;106372;1283;24195;-75
2023/04/18 04:18:58;;;;;;;23.50;13.60;;;;;;;;;;106470;1283;24202;-78
2023/04/18 04:22:02;;;;;;;;;;;;;;;;;;;;;
2023/04/18 04:25:12;;;;;;;22.10;13.10;;;;;;;;;;106420;1283;22778;-76
2023/04/18 04:27:44;;;;;;;20.90;11.70;;;;;;;;;;106501;1283;22533;-79
2023/04/18 04:30:25;;;;;;;21.30;12.60;;;;;;;;;;106384;1283;25483;-82
2023/04/18 04:34:17;;;;;;;23.80;14.80;;;;;;;;;;106473;1282;25281;-78
2023/04/18 04:36:27;;;;;;;21.50;12.40;;;;;;;;;;106602;1275;24256;-75
2023/04/18 04:39:34;;;;;;;22.90;13.30;;;;;;;;;;107097;1275;24250;-82
2023/04/18 04:42:44;;;;;;;23.10;12.80;;;;;;;;;;106977;1275;25244;-75
2023/04/18 04:48:39;;;;;;;21.60;12.50;;;;;;;;;;107116;1256;22535;-75
2023/04/18 04:51:36;;;;;;;25.20;14.50;;;;;;;;;;107176;1274;23370;-79
2023/04/18 04:54:19;;;;;;;22.00;13.00;;;;;;;;;;107121;1273;24209;-80
2023/04/18 04:57:36;;;;;;;25.60;13.80;;;;;;;;;;107087;1257;22536;-81
2023/04/18 05:00:23;;;;;;;;;;;;;;;;;;;;;
2023/04/18 05:03:25;;;;;;;28.30;13.60;;;;;;;;;;107082;1272;22541;-76
2023/04/18 05:06:11;;;;;;;22.00;13.10;;;;;;;;;;106928;1275;22533;-80
2023/04/18 05:09:04;;;;;;;25.60;14.60;;;;;;;;;;106824;1264;22519;-76
2023/04/18 05:11:45;;;;;;;28.70;14.90;;;;;;;;;;106893;1275;24272;-80
2023/04/18 05:18:13;;;;;;;24.00;13.10;;;;;;;;;;107011;1256;22627;-80
2023/04/18 05:20:57;;;;;;;;;;;;;;;;;;;;;
2023/04/18 05:23:26;;;;;;;22.90;12.20;;;;;;;;;;107068;1272;24218;-76
2023/04/18 05:26:17;;;;;;;22.30;12.10;;;;;;;;;;107148;1272;22630;-81
2023/04/18 05:29:25;;;;;;;24.90;14.20;;;;;;;;;;107082;1267;25360;-76
2023/04/18 05:32:58;;;;;;;23.40;11.90;;;;;;;;;;106864;1274;22602;-75
2023/04/18 05:35:30;;;;;;;22.80;12.60;;;;;;;;;;106336;1284;24737;-77
2023/04/18 05:38:13;;;;;;;24.40;13.80;;;;;;;;;;106353;1270;24249;-77
2023/04/18 05:41:12;;;;;;;;;;;;;;;;;;;;;
2023/04/18 05:44:30;;;;;;;;;;;;;;;;;;;;;
2023/04/18 05:47:44;;;;;;;;;;;;;;;;;;;;;
2023/04/18 05:50:20;;;;;;;21.50;12.60;;;;;;;;;;106017;1265;25265;-82
2023/04/18 05:53:00;;;;;;;;;;;;;;;;;;;;;
2023/04/18 05:56:01;;;;;;;21.60;12.60;;;;;;;;;;106320;1284;22769;-81
2023/04/18 05:58:33;;;;;;;22.00;13.20;;;;;;;;;;106319;1260;22492;-82
2023/04/18 06:02:29;;;;;;;29.60;15.60;;;;;;;;;;106383;1283;23009;-82
2023/04/18 06:05:01;;;;;;;25.70;14.20;;;;;;;;;;106317;1273;22801;-81
2023/04/18 06:08:53;;;;;;;23.50;13.00;;;;;;;;;;106428;1283;22529;-78
2023/04/18 06:11:44;;;;;;;23.80;13.20;;;;;;;;;;106448;1253;24613;-75
2023/04/18 06:14:40;;;;;;;;;;;;;;;;;;;;;
2023/04/18 06:17:54;;;;;;;29.30;16.40;;;;;;;;;;107165;1274;22521;-77
2023/04/18 06:20:47;;;;;;;27.50;16.80;;;;;;;;;;106975;1263;23925;-79
2023/04/18 06:24:18;;;;;;;30.00;16.50;;;;;;;;;;107065;1275;22517;-81
2023/04/18 06:27:00;;;;;;;24.40;13.90;;;;;;;;;;106440;1282;24285;-80
2023/04/18 06:30:30;;;;;;;24.90;15.00;;;;;;;;;;106414;1263;24196;-76
2023/04/18 06:32:43;;;;;;;25.40;14.70;;;;;;;;;;106374;1283;22579;-80
2023/04/18 06:35:48;;;;;;;25.90;14.80;;;;;;;;;;106345;1283;22537;-81
2023/04/18 06:38:59;;;;;;;29.50;15.80;;;;;;;;;;106390;1283;22532;-79
2023/04/18 06:41:53;;;;;;;25.10;14.00;;;;;;;;;;106388;1282;25331;-77
2023/04/18 06:45:33;;;;;;;25.50;14.70;;;;;;;;;;106409;1283;24474;-77
2023/04/18 06:47:34;;;;;;;27.70;14.90;;;;;;;;;;106393;1283;23926;-73
2023/04/18 06:50:43;;;;;;;27.40;14.90;;;;;;;;;;106378;1265;22824;-75
2023/04/18 06:53:27;;;;;;;24.70;14.50;;;;;;;;;;106445;1283;22536;-79
2023/04/18 06:56:02;;;;;;;27.30;15.20;;;;;;;;;;106367;1283;24222;-77
2023/04/18 06:58:45;;;;;;;;;;;;;;;;;;;;;
2023/04/18 07:01:49;;;;;;;23.80;13.50;;;;;;;;;;106359;1271;22619;-75
2023/04/18 07:04:31;;;;;;;25.50;14.90;;;;;;;;;;106803;1274;24238;-78
2023/04/18 07:07:00;;;;;;;23.00;14.20;;;;;;;;;;107048;1275;22953;-82
2023/04/18 07:09:37;;;;;;;23.40;13.50;;;;;;;;;;107083;1274;22540;-76
2023/04/18 07:12:13;;;;;;;26.60;13.60;;;;;;;;;;107075;1267;24240;-78
2023/04/18 07:15:00;;;;;;;21.90;13.00;;;;;;;;;;106893;1275;25327;-81
2023/04/18 07:17:47;;;;;;;23.70;14.40;;;;;;;;;;107040;1275;25268;-79
2023/04/18 07:20:39;;;;;;;22.70;13.20;;;;;;;;;;106910;1275;22657;-77
2023/04/18 07:23:36;;;;;;;23.20;13.00;;;;;;;;;;107045;1257;22544;-80
2023/04/18 07:26:16;;;;;;;;;;;;;;;;;;;;;
2023/04/18 07:28:53;;;;;;;20.50;11.70;;;;;;;;;;106925;1275;25497;-78
2023/04/18 07:31:44;;;;;;;23.40;12.70;;;;;;;;;;106863;1275;22640;-82
2023/04/18 07:34:36;;;;;;;22.70;12.20;;;;;;;;;;106912;1270;22767;-80
2023/04/18 07:37:25;;;;;;;;;;;;;;;;;;;;;
2023/04/18 07:43:43;;;;;;;30.10;18.90;;;;;;;;;;107021;1270;22535;-81
2023/04/18 07:46:31;;;;;;;20.30;12.60;;;;;;;;;;107103;1275;22575;-82
2023/04/18 07:48:58;;;;;;;19.00;11.90;;;;;;;;;;107046;1275;22544;-78
2023/04/18 07:55:10;;;;;;;19.80;11.30;;;;;;;;;;107010;1264;22508;-81
2023/04/18 07:58:20;;;;;;;21.50;11.50;;;;;;;;;;107136;1274;25316;-78
2023/04/18 08:01:14;;;;;;;19.30;10.20;;;;;;;;;;107095;1274;22541;-76
2023/04/18 08:04:16;;;;;;;24.80;12.50;;;;;;;;;;106857;1267;24192;-78
2023/04/18 08:07:44;;;;;;;22.50;12.00;;;;;;;;;;107093;1275;22520;-77
2023/04/18 08:14:35;;;;;;;20.60;11.80;;;;;;;;;;106367;1282;22534;-81
2023/04/18 08:16:59;;;;;;;20.20;11.00;;;;;;;;;;106419;1283;25307;-80
2023/04/18 08:19:53;;;;;;;22.00;11.10;;;;;;;;;;106413;1282;22645;-79
2023/04/18 08:22:32;;;;;;;28.90;13.30;;;;;;;;;;106453;1282;23174;-84
2023/04/18 08:25:26;;;;;;;18.80;10.10;;;;;;;;;;106474;1267;24208;-78
2023/04/18 08:28:09;;;;;;;19.90;10.70;;;;;;;;;;106424;1282;25347;-79
2023/04/18 08:30:49;;;;;;;20.80;11.60;;;;;;;;;;106484;1282;22529;-80
2023/04/18 08:33:50;;;;;;;25.10;11.70;;;;;;;;;;106437;1282;25287;-76
2023/04/18 08:36:17;;;;;;;21.70;11.70;;;;;;;;;;106457;1264;22533;-79
2023/04/18 08:39:25;;;;;;;;;;;;;;;;;;;;;
2023/04/18 08:42:11;;;;;;;20.10;10.00;;;;;;;;;;106563;1282;24134;-80
2023/04/18 08:44:45;;;;;;;18.90;9.90;;;;;;;;;;106478;1263;24282;-76
2023/04/18 08:47:20;;;;;;;16.70;10.10;;;;;;;;;;106722;1275;22542;-83
2023/04/18 08:50:00;;;;;;;18.40;10.30;;;;;;;;;;106923;1275;25278;-78
2023/04/18 08:52:49;;;;;;;19.40;9.90;;;;;;;;;;107086;1275;22773;-78
2023/04/18 08:55:21;;;;;;;19.60;9.90;;;;;;;;;;107079;1257;26932;-83
2023/04/18 08:58:21;;;;;;;20.30;11.00;;;;;;;;;;107056;1274;24235;-79
2023/04/18 09:01:29;;;;;;;19.10;11.10;;;;;;;;;;107085;1274;22803;-78
2023/04/18 09:04:34;;;;;;;20.40;10.80;;;;;;;;;;106406;1283;22654;-77
2023/04/18 09:07:40;;;;;;;20.30;11.60;;;;;;;;;;106431;1263;25447;-77
2023/04/18 09:11:34;;;;;;;22.30;11.00;;;;;;;;;;106422;1272;22703;-76
2023/04/18 09:13:46;;;;;;;22.70;11.20;;;;;;;;;;106416;1260;24247;-75
2023/04/18 09:16:25;;;;;;;29.10;12.60;;;;;;;;;;106386;1276;22645;-81
2023/04/18 09:22:03;;;;;;;30.80;13.10;;;;;;;;;;106395;1283;22564;-77
2023/04/18 09:24:54;;;;;;;29.50;14.10;;;;;;;;;;106383;1283;22530;-81
2023/04/18 09:27:21;;;;;;;24.50;12.60;;;;;;;;;;106444;1264;25282;-79
2023/04/18 09:30:01;;;;;;;25.70;12.50;;;;;;;;;;106410;1282;22630;-82
2023/04/18 09:32:32;;;;;;;27.90;13.10;;;;;;;;;;106553;1282;25236;-77
2023/04/18 09:35:08;;;;;;;26.10;13.50;;;;;;;;;;106462;1282;25282;-77
2023/04/18 09:37:49;;;;;;;27.20;14.50;;;;;;;;;;106349;1283;23905;-76
2023/04/18 09:40:19;;;;;;;24.00;12.60;;;;;;;;;;106476;1276;24356;-83
2023/04/18 09:43:55;;;;;;;24.70;14.10;;;;;;;;;;107029;1276;22528;-76
2023/04/18 09:46:06;;;;;;;23.60;13.00;;;;;;;;;;106347;1283;23446;-75
2023/04/18 09:49:39;;;;;;;28.60;15.50;;;;;;;;;;106379;1283;22083;-82
2023/04/18 09:52:10;;;;;;;25.40;14.90;;;;;;;;;;106386;1283;22719;-79
2023/04/18 09:54:41;;;;;;;25.30;12.60;;;;;;;;;;106437;1283;22788;-80
2023/04/18 09:57:54;;;;;;;21.10;12.80;;;;;;;;;;106320;1267;24205;-79
2023/04/18 10:00:30;;;;;;;21.60;12.30;;;;;;;;;;106312;1284;22536;-80
2023/04/18 10:03:19;;;;;;;23.70;14.40;;;;;;;;;;106361;1284;24344;-80
2023/04/18 10:06:28;;;;;;;23.20;13.10;;;;;;;;;;106371;1284;23109;-76
2023/04/18 10:09:59;;;;;;;20.40;12.30;;;;;;;;;;106360;1283;22529;-77
2023/04/18 10:12:46;;;;;;;22.10;12.60;;;;;;;;;;105946;1289;22698;-79
2023/04/18 10:15:30;;;;;;;21.00;13.50;;;;;;;;;;105927;1290;22643;-77
2023/04/18 10:18:23;;;;;;;28.50;15.70;;;;;;;;;;105905;1281;24223;-80
2023/04/18 10:21:31;;;;;;;37.90;25.70;;;;;;;;;;105906;1289;22579;-80
2023/04/18 10:24:27;;;;;;;;;;;;;;;;;;;;;
2023/04/18 10:27:37;;;;;;;23.60;13.60;;;;;;;;;;106155;1277;22527;-75
2023/04/18 10:30:25;;;;;;;26.70;16.80;;;;;;;;;;106030;1278;24379;-80
2023/04/18 10:33:18;;;;;;;26.90;15.70;;;;;;;;;;105909;1288;25725;-76
2023/04/18 10:36:07;;;;;;;;;;;;;;;;;;;;;
2023/04/18 10:38:47;;;;;;;;;;;;;;;;;;;;;
2023/04/18 10:41:57;;;;;;;24.70;14.30;;;;;;;;;;106004;1288;25542;-77
2023/04/18 10:45:04;;;;;;;38.20;18.10;;;;;;;;;;106114;1288;24203;-82
2023/04/18 10:48:23;;;;;;;27.20;15.90;;;;;;;;;;105276;1294;5097060;-78
2023/04/18 10:51:31;;;;;;;43.30;20.30;;;;;;;;;;106202;1270;24258;-79
2023/04/18 10:54:39;;;;;;;38.40;18.50;;;;;;;;;;106056;1287;25355;-76
2023/04/18 10:57:16;;;;;;;;;;;;;;;;;;;;;
2023/04/18 11:00:14;;;;;;;;;;;;;;;;;;;;;
2023/04/18 11:03:07;;;;;;;33.80;19.30;;;;;;;;;;106230;1287;22585;-78
2023/04/18 11:05:59;;;;;;;51.10;26.40;;;;;;;;;;106439;1282;24351;-76
2023/04/18 11:08:35;;;;;;;52.50;21.70;;;;;;;;;;106411;1282;22570;-79
2023/04/18 11:11:08;;;;;;;77.90;30.90;;;;;;;;;;106405;1260;25333;-79
2023/04/18 11:14:18;;;;;;;52.30;20.90;;;;;;;;;;106375;1283;25680;-79
2023/04/18 11:16:55;;;;;;;;;;;;;;;;;;;;;
2023/04/18 11:19:46;;;;;;;41.20;19.90;;;;;;;;;;106416;1261;22539;-76
2023/04/18 11:22:34;;;;;;;;;;;;;;;;;;;;;
2023/04/18 11:25:07;;;;;;;35.40;17.50;;;;;;;;;;106631;1254;22628;-76
2023/04/18 11:28:05;;;;;;;;;;;;;;;;;;;;;
2023/04/18 11:30:50;;;;;;;28.10;17.10;;;;;;;;;;106973;1257;22534;-79
2023/04/18 11:33:27;;;;;;;31.60;17.90;;;;;;;;;;106989;1276;24234;-75
2023/04/18 11:36:24;;;;;;;;;;;;;;;;;;;;;
2023/04/18 11:39:09;;;;;;;27.10;15.90;;;;;;;;;;107022;1275;22581;-78
2023/04/18 11:41:57;;;;;;;28.00;16.90;;;;;;;;;;107111;1274;23909;-76
2023/04/18 11:44:34;;;;;;;27.40;16.30;;;;;;;;;;107180;1274;22545;-78
2023/04/18 11:47:47;;;;;;;28.30;16.80;;;;;;;;;;107033;1267;22554;-78
2023/04/18 11:50:28;;;;;;;25.80;15.50;;;;;;;;;;106942;1267;22541;-75
2023/04/18 11:52:57;;;;;;;25.90;15.10;;;;;;;;;;106789;1258;24918;-76
2023/04/18 11:55:37;;;;;;;35.70;19.90;;;;;;;;;;107322;1269;22530;-75
2023/04/18 11:58:28;;;;;;;34.60;19.70;;;;;;;;;;107324;1275;22524;-76
2023/04/18 12:01:13;;;;;;;29.20;16.70;;;;;;;;;;106990;1251;25430;-75
2023/04/18 12:03:58;;;;;;;30.40;16.50;;;;;;;;;;106998;1273;24254;-78
2023/04/18 12:06:45;;;;;;;24.60;15.80;;;;;;;;;;107369;1274;25558;-76
2023/04/18 12:09:13;;;;;;;21.00;13.60;;;;;;;;;;107172;1274;22532;-79
2023/04/18 12:12:01;;;;;;;34.00;17.70;;;;;;;;;;107170;1258;24186;-79
2023/04/18 12:14:40;;;;;;;59.00;24.50;;;;;;;;;;107030;1272;22569;-74
2023/04/18 12:17:25;;;;;;;46.20;23.70;;;;;;;;;;103595;1296;545051;-77
2023/04/18 12:19:54;;;;;;;34.60;19.30;;;;;;;;;;106161;1290;22540;-75
2023/04/18 12:22:37;;;;;;;41.90;21.90;;;;;;;;;;105854;1290;24286;-80
2023/04/18 12:25:24;;;;;;;33.80;20.00;;;;;;;;;;106181;1291;25302;-75
2023/04/18 12:27:52;;;;;;;24.10;14.40;;;;;;;;;;106347;1274;21969;-77
2023/04/18 12:30:21;;;;;;;36.80;19.60;;;;;;;;;;104080;1288;2931179;-80
2023/04/18 12:32:49;;;;;;;23.70;15.50;;;;;;;;;;106145;1278;22550;-75
2023/04/18 12:35:17;;;;;;;27.90;17.40;;;;;;;;;;106168;1288;25404;-74
2023/04/18 12:37:45;;;;;;;82.70;44.30;;;;;;;;;;106594;1271;22777;-74
2023/04/18 12:40:12;;;;;;;93.60;49.20;;;;;;;;;;106246;1288;22532;-75
2023/04/18 12:42:40;;;;;;;130.90;71.20;;;;;;;;;;106188;1288;25301;-73
2023/04/18 12:45:25;;;;;;;41.30;24.20;;;;;;;;;;106029;1285;25328;-76
2023/04/18 12:47:55;;;;;;;46.10;26.20;;;;;;;;;;105982;1282;25291;-77
2023/04/18 12:50:23;;;;;;;42.80;25.50;;;;;;;;;;106126;1282;22756;-75
2023/04/18 12:52:59;;;;;;;38.50;24.60;;;;;;;;;;105978;1282;22517;-78
2023/04/18 12:55:28;;;;;;;37.80;23.70;;;;;;;;;;106163;1282;22543;-75
2023/04/18 12:57:56;;;;;;;31.20;19.80;;;;;;;;;;106239;1279;23353;-76
2023/04/18 13:00:28;;;;;;;25.10;16.30;;;;;;;;;;107112;1276;22524;-76
2023/04/18 13:02:55;;;;;;;28.00;17.20;;;;;;;;;;107124;1275;25347;-77
2023/04/18 13:05:26;;;;;;;27.70;18.50;;;;;;;;;;107062;1273;25318;-77
2023/04/18 13:07:56;;;;;;;35.50;20.90;;;;;;;;;;106902;1259;22529;-75
2023/04/18 13:10:33;;;;;;;39.00;20.00;;;;;;;;;;106855;1270;25385;-75
2023/04/18 13:13:20;;;;;;;83.50;33.00;;;;;;;;;;106853;1273;24223;-77
2023/04/18 13:15:50;;;;;;;140.60;44.40;;;;;;;;;;106906;1273;23901;-74
2023/04/18 13:18:17;;;;;;;45.40;28.90;;;;;;;;;;106805;1260;22645;-81
2023/04/18 13:20:44;;;;;;;37.30;23.90;;;;;;;;;;106843;1274;22549;-74
2023/04/18 13:23:11;;;;;;;30.40;18.90;;;;;;;;;;106861;1271;24247;-77
2023/04/18 13:25:47;;;;;;;34.80;19.90;;;;;;;;;;106897;1272;24199;-75
2023/04/18 13:28:27;;;;;;;;;;;;;;;;;;;;;
2023/04/18 13:31:08;;;;;;;32.50;18.50;;;;;;;;;;106813;1275;22513;-74
2023/04/18 13:34:07;;;;;;;33.70;19.00;;;;;;;;;;107029;1272;22648;-75
2023/04/18 13:36:37;;;;;;;34.30;19.20;;;;;;;;;;106684;1275;22518;-76
2023/04/18 13:39:04;;;;;;;31.20;18.10;;;;;;;;;;106730;1272;26489;-75
2023/04/18 13:41:57;;;;;;;33.80;19.40;;;;;;;;;;106761;1276;24247;-76
2023/04/18 13:44:29;;;;;;;44.70;22.20;;;;;;;;;;106746;1270;21794;-76
2023/04/18 13:47:16;;;;;;;36.60;19.90;;;;;;;;;;106744;1277;22654;-75
2023/04/18 13:49:53;;;;;;;36.70;20.50;;;;;;;;;;106751;1263;25405;-75
2023/04/18 13:52:23;;;;;;;31.80;18.80;;;;;;;;;;107356;1271;23884;-74
2023/04/18 13:55:11;;;;;;;40.60;20.10;;;;;;;;;;107013;1276;22768;-75
2023/04/18 13:57:40;;;;;;;39.90;24.90;;;;;;;;;;106692;1276;22744;-74
2023/04/18 14:00:13;;;;;;;31.70;20.80;;;;;;;;;;106594;1276;22536;-78
2023/04/18 14:02:49;;;;;;;35.20;20.90;;;;;;;;;;106839;1277;24231;-74
2023/04/18 14:05:25;;;;;;;33.60;19.60;;;;;;;;;;106788;1277;23919;-80
2023/04/18 14:07:52;;;;;;;32.60;19.00;;;;;;;;;;106860;1277;24199;-78
2023/04/18 14:10:21;;;;;;;30.60;18.00;;;;;;;;;;106801;1268;25230;-80
2023/04/18 14:12:57;;;;;;;33.50;19.20;;;;;;;;;;106910;1275;24243;-76
2023/04/18 14:15:26;;;;;;;32.50;20.50;;;;;;;;;;106872;1276;25363;-77
2023/04/18 14:17:56;;;;;;;32.90;19.80;;;;;;;;;;106837;1276;25324;-73
2023/04/18 14:20:23;;;;;;;29.60;17.90;;;;;;;;;;106846;1267;22646;-81
2023/04/18 14:22:50;;;;;;;31.40;19.00;;;;;;;;;;106879;1276;22566;-77
2023/04/18 14:25:27;;;;;;;30.40;18.50;;;;;;;;;;106736;1276;25240;-78
2023/04/18 14:28:09;;;;;;;32.40;18.60;;;;;;;;;;106811;1276;22958;-81
2023/04/18 14:30:39;;;;;;;31.90;19.60;;;;;;;;;;107107;1267;23874;-76
2023/04/18 14:33:15;;;;;;;29.30;18.50;;;;;;;;;;106825;1277;22531;-78
2023/04/18 14:35:45;;;;;;;28.20;18.30;;;;;;;;;;106839;1276;24384;-77
2023/04/18 14:38:14;;;;;;;30.90;20.10;;;;;;;;;;106827;1276;22530;-76
2023/04/18 14:40:41;;;;;;;32.90;19.90;;;;;;;;;;106794;1258;23915;-77
2023/04/18 14:43:08;;;;;;;32.60;19.40;;;;;;;;;;106815;1276;24935;-75
2023/04/18 14:45:34;;;;;;;29.60;19.30;;;;;;;;;;106852;1276;23874;-73
2023/04/18 14:48:09;;;;;;;31.20;20.40;;;;;;;;;;106820;1276;25316;-78
2023/04/18 14:50:37;;;;;;;32.10;19.70;;;;;;;;;;106814;1268;25620;-81
2023/04/18 14:53:33;;;;;;;29.70;18.30;;;;;;;;;;106791;1276;25190;-77
2023/04/18 14:56:03;;;;;;;31.50;19.80;;;;;;;;;;106835;1276;22787;-78
2023/04/18 14:58:30;;;;;;;29.90;18.20;;;;;;;;;;106816;1276;22526;-80
2023/04/18 15:01:16;;;;;;;;;;;;;;;;;;;;;
2023/04/18 15:03:51;;;;;;;30.60;19.40;;;;;;;;;;106826;1266;22557;-78
2023/04/18 15:06:22;;;;;;;28.40;18.80;;;;;;;;;;106852;1276;22528;-75
2023/04/18 15:08:51;;;;;;;31.70;18.40;;;;;;;;;;106920;1276;23911;-74
2023/04/18 15:11:18;;;;;;;34.00;21.10;;;;;;;;;;106835;1276;24181;-80
2023/04/18 15:13:46;;;;;;;51.10;27.70;;;;;;;;;;106812;1277;22538;-79
2023/04/18 15:16:34;;;;;;;30.00;19.40;;;;;;;;;;106851;1276;25230;-76
2023/04/18 15:19:45;;;;;;;32.70;19.00;;;;;;;;;;106811;1276;22646;-80
2023/04/18 15:22:10;;;;;;;38.00;21.80;;;;;;;;;;106774;1267;22634;-77
2023/04/18 15:24:51;;;;;;;40.70;21.10;;;;;;;;;;106837;1277;25315;-78
2023/04/18 15:27:17;;;;;;;42.70;24.60;;;;;;;;;;106812;1277;21716;-80
2023/04/18 15:29:47;;;;;;;58.50;33.90;;;;;;;;;;106812;1277;25352;-78
2023/04/18 15:32:26;;;;;;;29.70;20.00;;;;;;;;;;106799;1276;25282;-78
2023/04/18 15:34:53;;;;;;;28.40;18.20;;;;;;;;;;106838;1276;22530;-75
2023/04/18 15:37:24;;;;;;;31.70;21.10;;;;;;;;;;106817;1276;22533;-77
2023/04/18 15:39:52;;;;;;;34.10;21.70;;;;;;;;;;106844;1276;22543;-77
2023/04/18 15:42:42;;;;;;;99.40;51.40;;;;;;;;;;106750;1269;22589;-78
2023/04/18 15:45:29;;;;;;;151.20;71.50;;;;;;;;;;106824;1277;22993;-75
2023/04/18 15:48:22;;;;;;;133.00;70.10;;;;;;;;;;106742;1277;22528;-80
2023/04/18 15:50:57;;;;;;;44.40;26.40;;;;;;;;;;106847;1260;24243;-78
2023/04/18 15:53:35;;;;;;;60.60;36.00;;;;;;;;;;106788;1277;25308;-76
2023/04/18 15:56:05;;;;;;;68.10;39.30;;;;;;;;;;106811;1276;22532;-77
2023/04/18 15:58:59;;;;;;;82.50;48.50;;;;;;;;;;106859;1277;24366;-81
2023/04/18 16:01:28;;;;;;;98.70;63.60;;;;;;;;;;106779;1270;22640;-80
2023/04/18 16:04:03;;;;;;;33.70;23.30;;;;;;;;;;106813;1277;22526;-77
2023/04/18 16:06:50;;;;;;;25.60;16.70;;;;;;;;;;106711;1277;22605;-81
2023/04/18 16:09:19;;;;;;;26.40;18.30;;;;;;;;;;106801;1277;22738;-81
2023/04/18 16:11:49;;;;;;;31.00;23.50;;;;;;;;;;106877;1268;22625;-81
2023/04/18 16:14:18;;;;;;;32.30;22.00;;;;;;;;;;106881;1277;25274;-81
2023/04/18 16:16:45;;;;;;;28.70;20.80;;;;;;;;;;106842;1277;25817;-78
2023/04/18 16:19:14;;;;;;;28.60;19.50;;;;;;;;;;106838;1275;25195;-76
2023/04/18 16:21:50;;;;;;;28.50;19.20;;;;;;;;;;106839;1276;22598;-75
2023/04/18 16:24:20;;;;;;;36.20;26.70;;;;;;;;;;106855;1277;24224;-77
2023/04/18 16:26:50;;;;;;;26.80;18.00;;;;;;;;;;106844;1277;22516;-81
2023/04/18 16:29:18;;;;;;;24.90;16.10;;;;;;;;;;106897;1275;22532;-75
2023/04/18 16:31:57;;;;;;;;;;;;;;;;;;;;;
2023/04/18 16:34:55;;;;;;;;;;;;;;;;;;;;;
2023/04/18 16:37:27;;;;;;;48.70;32.70;;;;;;;;;;106831;1276;26488;-75
2023/04/18 16:40:07;;;;;;;32.90;20.10;;;;;;;;;;106839;1276;22543;-78
2023/04/18 16:42:55;;;;;;;;;;;;;;;;;;;;;
2023/04/18 16:45:22;;;;;;;28.60;18.40;;;;;;;;;;106888;1270;24253;-76
2023/04/18 16:47:49;;;;;;;28.70;17.30;;;;;;;;;;106858;1270;22530;-74
2023/04/18 16:50:16;;;;;;;29.70;16.40;;;;;;;;;;106823;1273;23871;-78
2023/04/18 16:53:03;;;;;;;29.60;16.90;;;;;;;;;;106859;1266;25859;-78
2023/04/18 16:55:33;;;;;;;30.80;18.60;;;;;;;;;;106870;1274;25476;-84
2023/04/18 16:58:02;;;;;;;29.40;18.30;;;;;;;;;;106909;1271;22526;-75
2023/04/18 17:00:30;;;;;;;29.50;17.90;;;;;;;;;;106706;1271;22536;-75
2023/04/18 17:02:57;;;;;;;27.00;16.40;;;;;;;;;;106748;1268;22521;-78
2023/04/18 17:05:26;;;;;;;26.80;17.60;;;;;;;;;;106758;1276;22611;-79
2023/04/18 17:07:54;;;;;;;27.30;16.90;;;;;;;;;;106760;1276;22526;-82
2023/04/18 17:10:21;;;;;;;27.20;17.70;;;;;;;;;;106850;1276;24190;-77
2023/04/18 17:12:53;;;;;;;30.70;18.20;;;;;;;;;;106855;1259;22627;-75
2023/04/18 17:15:24;;;;;;;28.90;19.40;;;;;;;;;;106876;1276;24290;-75
2023/04/18 17:18:22;;;;;;;30.30;18.20;;;;;;;;;;106864;1276;22540;-77
2023/04/18 17:20:58;;;;;;;31.50;20.00;;;;;;;;;;107051;1270;22537;-75